createdAt,value
2018-12-22T00:02:13.938Z,100205.80
2018-12-22T00:04:42.295Z,100194.05
2018-12-22T00:07:10.639Z,100193.13
2018-12-22T00:09:38.998Z,100195.80
2018-12-22T00:12:07.443Z,100201.86
2018-12-22T00:14:35.773Z,100204.05
2018-12-22T00:17:04.432Z,100210.12
2018-12-22T00:19:32.840Z,100204.45
2018-12-22T00:22:01.203Z,100206.66
2018-12-22T00:24:29.600Z,100206.64
2018-12-22T00:26:57.936Z,100199.28
2018-12-22T00:29:26.383Z,100194.06
2018-12-22T00:31:54.852Z,100193.64
2018-12-22T00:34:23.192Z,100206.20
2018-12-22T00:36:51.574Z,100199.69
2018-12-22T00:39:19.963Z,100201.44
2018-12-22T00:41:48.299Z,100189.29
2018-12-22T00:44:16.768Z,100194.52
2018-12-22T00:46:45.216Z,100192.33
2018-12-22T00:49:13.573Z,100194.94
2018-12-22T00:51:42.027Z,100201.88
2018-12-22T00:54:10.364Z,100199.27
2018-12-22T00:56:38.703Z,100206.22
2018-12-22T00:59:07.057Z,100211.44
2018-12-22T01:01:35.411Z,100202.27
2018-12-22T01:04:03.869Z,100208.38
2018-12-22T01:06:32.284Z,100203.20
2018-12-22T01:09:00.692Z,100201.47
2018-12-22T01:11:29.165Z,100200.58
2018-12-22T01:13:57.527Z,100202.77
2018-12-22T01:16:25.882Z,100205.80
2018-12-22T01:18:54.250Z,100203.19
2018-12-22T01:21:22.671Z,100204.92
2018-12-22T01:23:51.091Z,100204.50
2018-12-22T01:26:19.438Z,100198.42
2018-12-22T01:28:47.781Z,100209.23
2018-12-22T01:31:16.176Z,100205.78
2018-12-22T01:33:44.540Z,100204.05
2018-12-22T01:36:12.894Z,100200.58
2018-12-22T01:38:41.318Z,100204.94
2018-12-22T01:41:10.682Z,100203.17
2018-12-22T01:43:39.135Z,100198.84
2018-12-22T01:46:07.475Z,100172.39
2018-12-22T01:48:36.310Z,100168.89
2018-12-22T01:51:04.910Z,100172.38
2018-12-22T01:53:33.414Z,100184.02
2018-12-22T01:56:01.766Z,100178.90
2018-12-22T01:58:30.098Z,100188.02
2018-12-22T02:00:58.437Z,100184.97
2018-12-22T02:03:26.835Z,100192.76
2018-12-22T02:05:55.215Z,100194.06
2018-12-22T02:08:23.567Z,100189.72
2018-12-22T02:10:51.959Z,100182.80
2018-12-22T02:13:20.339Z,100186.25
2018-12-22T02:15:48.716Z,100190.15
2018-12-22T02:18:17.080Z,100191.05
2018-12-22T02:20:45.402Z,100177.97
2018-12-22T02:23:13.737Z,100171.95
2018-12-22T02:25:42.071Z,100169.34
2018-12-22T02:28:10.490Z,100168.41
2018-12-22T02:30:38.824Z,100155.40
2018-12-22T02:33:07.155Z,100152.81
2018-12-22T02:35:35.511Z,100150.64
2018-12-22T02:38:03.845Z,100148.91
2018-12-22T02:40:32.163Z,100144.61
2018-12-22T02:43:00.575Z,100150.19
2018-12-22T02:45:28.973Z,100156.76
2018-12-22T02:47:57.312Z,100160.18
2018-12-22T02:50:25.639Z,100147.62
2018-12-22T02:52:54.037Z,100144.61
2018-12-22T02:55:22.379Z,100139.81
2018-12-22T02:57:50.880Z,100142.45
2018-12-22T03:00:19.303Z,100140.70
2018-12-22T03:02:47.658Z,100129.87
2018-12-22T03:05:15.997Z,100128.13
2018-12-22T03:07:44.361Z,100128.13
2018-12-22T03:10:12.903Z,100126.40
2018-12-22T03:12:41.223Z,100122.51
2018-12-22T03:15:09.566Z,100117.30
2018-12-22T03:17:37.879Z,100123.76
2018-12-22T03:20:06.326Z,100115.97
2018-12-22T03:22:34.704Z,100119.05
2018-12-22T03:25:03.087Z,100115.96
2018-12-22T03:27:31.461Z,100109.49
2018-12-22T03:29:59.803Z,100099.09
2018-12-22T03:32:28.154Z,100104.28
2018-12-22T03:34:56.576Z,100091.69
2018-12-22T03:37:24.920Z,100090.80
2018-12-22T03:39:53.342Z,100083.86
2018-12-22T03:42:21.724Z,100081.27
2018-12-22T03:44:50.107Z,100083.00
2018-12-22T03:47:18.465Z,100088.20
2018-12-22T03:49:46.798Z,100089.09
2018-12-22T03:52:15.141Z,100078.66
2018-12-22T03:54:43.516Z,100086.47
2018-12-22T03:57:11.980Z,100071.31
2018-12-22T03:59:40.311Z,100083.42
2018-12-22T04:02:08.684Z,100086.42
2018-12-22T04:04:37.035Z,100081.64
2018-12-22T04:07:05.540Z,100084.98
2018-12-22T04:09:33.905Z,100077.23
2018-12-22T04:12:02.429Z,100071.58
2018-12-22T04:14:30.780Z,100081.95
2018-12-22T04:16:59.127Z,100071.12
2018-12-22T04:19:27.461Z,100087.55
2018-12-22T04:21:55.830Z,100092.75
2018-12-22T04:24:24.182Z,100097.05
2018-12-22T04:26:52.644Z,100094.89
2018-12-22T04:29:20.971Z,100089.66
2018-12-22T04:31:50.771Z,100087.93
2018-12-22T04:34:19.337Z,100089.58
2018-12-22T04:36:47.697Z,100089.52
2018-12-22T04:39:16.065Z,100085.16
2018-12-22T04:41:44.429Z,100087.28
2018-12-22T04:44:12.779Z,100091.27
2018-12-22T04:46:41.095Z,100098.16
2018-12-22T04:49:09.472Z,100112.41
2018-12-22T04:51:37.823Z,100108.48
2018-12-22T04:54:06.151Z,100099.88
2018-12-22T04:56:34.530Z,100103.80
2018-12-22T04:59:02.860Z,100106.34
2018-12-22T05:01:31.289Z,100115.00
2018-12-22T05:03:59.626Z,100120.20
2018-12-22T05:06:27.949Z,100125.45
2018-12-22T05:08:56.277Z,100120.69
2018-12-22T05:11:24.604Z,100114.67
2018-12-22T05:13:52.939Z,100121.11
2018-12-22T05:16:21.269Z,100118.16
2018-12-22T05:18:49.595Z,100118.70
2018-12-22T05:21:17.945Z,100130.40
2018-12-22T05:23:46.366Z,100120.52
2018-12-22T05:26:14.695Z,100122.29
2018-12-22T05:28:43.040Z,100122.72
2018-12-22T05:31:11.401Z,100131.83
2018-12-22T05:33:39.761Z,100130.98
2018-12-22T05:36:08.101Z,100139.21
2018-12-22T05:38:36.467Z,100130.15
2018-12-22T05:41:04.839Z,100136.21
2018-12-22T05:43:33.200Z,100141.82
2018-12-22T05:46:01.584Z,100139.68
2018-12-22T05:48:29.910Z,100152.67
2018-12-22T05:50:58.271Z,100150.48
2018-12-22T05:53:26.587Z,100157.48
2018-12-22T05:55:54.960Z,100154.41
2018-12-22T05:58:23.316Z,100158.31
2018-12-22T06:00:51.664Z,100165.25
2018-12-22T06:03:19.966Z,100158.73
2018-12-22T06:05:48.415Z,100167.88
2018-12-22T06:08:16.764Z,100165.68
2018-12-22T06:10:45.127Z,100167.85
2018-12-22T06:13:13.459Z,100177.39
2018-12-22T06:15:41.803Z,100178.29
2018-12-22T06:18:10.183Z,100187.41
2018-12-22T06:20:38.535Z,100195.66
2018-12-22T06:23:06.921Z,100206.49
2018-12-22T06:25:35.265Z,100206.09
2018-12-22T06:28:03.737Z,100208.20
2018-12-22T06:30:32.100Z,100212.92
2018-12-22T06:33:00.441Z,100212.82
2018-12-22T06:35:28.834Z,100211.50
2018-12-22T06:37:57.285Z,100219.73
2018-12-22T06:40:25.625Z,100222.56
2018-12-22T06:42:54.013Z,100232.18
2018-12-22T06:45:22.402Z,100244.34
2018-12-22T06:47:50.740Z,100249.09
2018-12-22T06:50:19.106Z,100247.08
2018-12-22T06:52:47.682Z,100262.67
2018-12-22T06:55:16.068Z,100269.19
2018-12-22T06:57:44.410Z,100280.44
2018-12-22T07:00:17.607Z,100287.33
2018-12-22T07:02:43.386Z,100289.09
2018-12-22T07:05:11.769Z,100286.47
2018-12-22T07:07:40.145Z,100298.66
2018-12-22T07:10:09.180Z,100305.19
2018-12-22T07:12:37.550Z,100307.78
2018-12-22T07:15:05.917Z,100316.47
2018-12-22T07:17:34.300Z,100328.14
2018-12-22T07:20:02.658Z,100336.40
2018-12-22T07:22:31.157Z,100331.10
2018-12-22T07:24:59.588Z,100345.06
2018-12-22T07:27:27.994Z,100346.74
2018-12-22T07:29:56.436Z,100363.66
2018-12-22T07:32:24.824Z,100364.91
2018-12-22T07:34:55.076Z,100360.91
2018-12-22T07:37:23.532Z,100373.14
2018-12-22T07:39:51.893Z,100379.67
2018-12-22T07:42:20.312Z,100384.75
2018-12-22T07:44:48.643Z,100386.05
2018-12-22T07:47:17.095Z,100391.23
2018-12-22T07:49:45.526Z,100409.25
2018-12-22T07:52:13.903Z,100405.75
2018-12-22T07:54:43.697Z,100420.51
2018-12-22T07:57:12.534Z,100422.73
2018-12-22T07:59:42.189Z,100438.26
2018-12-22T08:02:10.542Z,100445.55
2018-12-22T08:04:39.451Z,100455.55
2018-12-22T08:07:07.882Z,100451.84
2018-12-22T08:09:36.229Z,100453.30
2018-12-22T08:12:04.567Z,100468.09
2018-12-22T08:14:33.110Z,100471.70
2018-12-22T08:17:01.462Z,100479.34
2018-12-22T08:19:30.706Z,100493.20
2018-12-22T08:21:59.874Z,100500.52
2018-12-22T08:24:28.379Z,100508.36
2018-12-22T08:26:56.707Z,100518.39
2018-12-22T08:29:28.118Z,100522.64
2018-12-22T08:31:56.492Z,100539.73
2018-12-22T08:34:25.035Z,100544.53
2018-12-22T08:36:54.470Z,100551.55
2018-12-22T08:39:23.115Z,100549.92
2018-12-22T08:41:51.493Z,100555.98
2018-12-22T08:44:19.892Z,100562.41
2018-12-22T08:46:49.374Z,100574.97
2018-12-22T08:49:17.807Z,100575.52
2018-12-22T08:51:46.197Z,100583.75
2018-12-22T08:54:14.623Z,100589.42
2018-12-22T08:56:44.414Z,100606.50
2018-12-22T08:59:13.121Z,100614.34
2018-12-22T09:01:41.515Z,100618.71
2018-12-22T09:04:10.391Z,100623.84
2018-12-22T09:06:38.747Z,100625.81
2018-12-22T09:09:10.170Z,100635.90
2018-12-22T09:11:38.608Z,100637.67
2018-12-22T09:14:06.979Z,100638.89
2018-12-22T09:16:35.321Z,100654.14
2018-12-22T09:19:03.671Z,100655.66
2018-12-22T09:21:32.147Z,100659.17
2018-12-22T09:24:00.593Z,100671.73
2018-12-22T09:26:28.984Z,100673.12
2018-12-22T09:28:57.320Z,100665.41
2018-12-22T09:31:25.676Z,100667.22
2018-12-22T09:33:54.030Z,100677.73
2018-12-22T09:36:22.432Z,100680.38
2018-12-22T09:38:50.772Z,100685.94
2018-12-22T09:41:19.147Z,100683.95
2018-12-22T09:43:47.583Z,100696.49
2018-12-22T09:46:15.957Z,100686.80
2018-12-22T09:48:44.332Z,100695.16
2018-12-22T09:51:12.674Z,100697.75
2018-12-22T09:53:41.082Z,100698.23
2018-12-22T09:56:09.488Z,100701.48
2018-12-22T09:58:37.991Z,100698.94
2018-12-22T10:01:09.438Z,100698.14
2018-12-22T10:03:37.458Z,100698.27
2018-12-22T10:06:06.885Z,100699.20
2018-12-22T10:08:35.216Z,100711.41
2018-12-22T10:11:03.547Z,100712.65
2018-12-22T10:13:31.879Z,100717.16
2018-12-22T10:16:00.266Z,100720.02
2018-12-22T10:18:28.721Z,100716.48
2018-12-22T10:20:57.072Z,100723.43
2018-12-22T10:23:25.493Z,100724.20
2018-12-22T10:25:53.839Z,100720.39
2018-12-22T10:28:22.175Z,100723.45
2018-12-22T10:30:50.514Z,100740.24
2018-12-22T10:33:18.911Z,100730.11
2018-12-22T10:35:48.204Z,100744.93
2018-12-22T10:38:16.564Z,100749.61
2018-12-22T10:40:45.040Z,100752.91
2018-12-22T10:43:13.353Z,100757.20
2018-12-22T10:45:41.662Z,100757.97
2018-12-22T10:48:10.028Z,100753.73
2018-12-22T10:50:38.353Z,100753.72
2018-12-22T10:53:06.707Z,100748.63
2018-12-22T10:55:35.129Z,100747.04
2018-12-22T10:58:03.580Z,100754.16
2018-12-22T11:00:32.344Z,100748.82
2018-12-22T11:03:00.898Z,100754.95
2018-12-22T11:05:29.397Z,100759.41
2018-12-22T11:07:57.804Z,100759.41
2018-12-22T11:10:26.177Z,100758.28
2018-12-22T11:12:54.528Z,100765.22
2018-12-22T11:15:22.945Z,100769.65
2018-12-22T11:17:51.295Z,100764.61
2018-12-22T11:20:19.615Z,100766.45
2018-12-22T11:22:47.979Z,100763.57
2018-12-22T11:25:16.432Z,100771.06
2018-12-22T11:27:44.841Z,100770.27
2018-12-22T11:30:20.351Z,100776.94
2018-12-22T11:32:48.749Z,100772.00
2018-12-22T11:35:17.109Z,100774.60
2018-12-22T11:37:45.488Z,100774.53
2018-12-22T11:40:13.863Z,100775.45
2018-12-22T11:42:47.636Z,100780.89
2018-12-22T11:45:12.702Z,100786.68
2018-12-22T11:47:44.845Z,100787.26
2018-12-22T11:50:20.014Z,100789.42
2018-12-22T11:52:48.408Z,100792.68
2018-12-22T11:55:16.744Z,100798.75
2018-12-22T11:57:45.173Z,100793.91
2018-12-22T12:00:13.527Z,100807.39
2018-12-22T12:02:41.868Z,100801.90
2018-12-22T12:05:11.219Z,100804.11
2018-12-22T12:07:39.641Z,100808.19
2018-12-22T12:10:10.094Z,100809.03
2018-12-22T12:12:38.440Z,100812.71
2018-12-22T12:15:14.155Z,100816.69
2018-12-22T12:17:57.162Z,100825.65
2018-12-22T12:20:25.570Z,100822.88
2018-12-22T12:22:54.021Z,100829.83
2018-12-22T12:25:22.375Z,100836.73
2018-12-22T12:27:50.712Z,100837.56
2018-12-22T12:30:19.096Z,100840.75
2018-12-22T12:32:47.467Z,100826.96
2018-12-22T12:35:15.815Z,100823.45
2018-12-22T12:37:44.259Z,100834.81
2018-12-22T12:40:13.506Z,100843.42
2018-12-22T12:42:41.857Z,100835.71
2018-12-22T12:45:13.889Z,100833.67
2018-12-22T12:47:44.760Z,100839.22
2018-12-22T12:50:21.555Z,100837.41
2018-12-22T12:52:49.897Z,100840.13
2018-12-22T12:55:18.260Z,100845.23
2018-12-22T12:57:46.753Z,100847.03
2018-12-22T13:00:20.059Z,100844.83
2018-12-22T13:02:48.397Z,100858.36
2018-12-22T13:05:16.748Z,100857.42
2018-12-22T13:07:45.148Z,100867.34
2018-12-22T13:10:13.602Z,100868.05
2018-12-22T13:12:55.628Z,100865.77
2018-12-22T13:15:24.111Z,100869.12
2018-12-22T13:17:52.444Z,100874.58
2018-12-22T13:20:21.725Z,100872.98
2018-12-22T13:22:50.270Z,100879.91
2018-12-22T13:25:18.733Z,100875.61
2018-12-22T13:27:47.245Z,100878.95
2018-12-22T13:30:15.622Z,100880.66
2018-12-22T13:32:43.970Z,100880.86
2018-12-22T13:35:12.342Z,100877.13
2018-12-22T13:37:40.672Z,100882.59
2018-12-22T13:40:11.874Z,100881.23
2018-12-22T13:42:40.427Z,100885.41
2018-12-22T13:45:11.848Z,100898.30
2018-12-22T13:47:40.532Z,100908.06
2018-12-22T13:50:12.972Z,100911.84
2018-12-22T13:52:41.456Z,100914.67
2018-12-22T13:55:10.622Z,100922.91
2018-12-22T13:57:43.747Z,100926.52
2018-12-22T14:00:20.991Z,100912.28
2018-12-22T14:02:49.399Z,100920.92
2018-12-22T14:05:25.695Z,100917.09
2018-12-22T14:07:54.054Z,100923.13
2018-12-22T14:10:23.815Z,100925.66
2018-12-22T14:12:52.207Z,100936.28
2018-12-22T14:15:23.568Z,100918.01
2018-12-22T14:18:07.308Z,100920.14
2018-12-22T14:20:36.412Z,100929.93
2018-12-22T14:23:04.818Z,100931.38
2018-12-22T14:25:33.199Z,100929.38
2018-12-22T14:28:01.690Z,100928.63
2018-12-22T14:30:30.026Z,100938.27
2018-12-22T14:32:58.359Z,100946.16
2018-12-22T14:35:32.336Z,100956.23
2018-12-22T14:38:00.701Z,100952.13
2018-12-22T14:40:29.201Z,100965.82
2018-12-22T14:42:57.531Z,100966.97
2018-12-22T14:45:26.191Z,100969.91
2018-12-22T14:47:54.557Z,100975.55
2018-12-22T14:50:22.887Z,100978.88
2018-12-22T14:52:51.216Z,100988.56
2018-12-22T14:55:19.555Z,100993.01
2018-12-22T14:57:58.319Z,101000.58
2018-12-22T15:00:26.695Z,101004.20
2018-12-22T15:02:55.062Z,101014.02
2018-12-22T15:05:23.528Z,101014.07
2018-12-22T15:07:51.859Z,101017.16
2018-12-22T15:10:20.202Z,101017.94
2018-12-22T15:12:49.705Z,101024.70
2018-12-22T15:15:18.096Z,101015.06
2018-12-22T15:17:46.582Z,101018.81
2018-12-22T15:20:23.101Z,101025.16
2018-12-22T15:22:51.498Z,101028.03
2018-12-22T15:25:19.908Z,101036.13
2018-12-22T15:27:48.307Z,101040.72
2018-12-22T15:30:16.659Z,101044.13
2018-12-22T15:32:54.166Z,101049.83
2018-12-22T15:35:15.816Z,101052.81
2018-12-22T15:37:44.172Z,101044.38
2018-12-22T15:40:12.552Z,101052.14
2018-12-22T15:42:40.962Z,101051.45
2018-12-22T15:45:16.181Z,101058.67
2018-12-22T15:47:46.063Z,101047.41
2018-12-22T15:50:34.437Z,101062.51
2018-12-22T15:53:02.821Z,101055.89
2018-12-22T15:55:31.224Z,101060.96
2018-12-22T15:57:59.708Z,101071.14
2018-12-22T16:00:28.107Z,101078.08
2018-12-22T16:02:56.534Z,101082.24
2018-12-22T16:05:24.985Z,101077.98
2018-12-22T16:07:53.306Z,101079.71
2018-12-22T16:10:22.954Z,101084.34
2018-12-22T16:12:51.524Z,101085.09
2018-12-22T16:15:24.483Z,101084.64
2018-12-22T16:17:52.823Z,101090.19
2018-12-22T16:20:21.170Z,101088.02
2018-12-22T16:22:56.176Z,101087.73
2018-12-22T16:25:24.590Z,101078.20
2018-12-22T16:27:58.651Z,101076.31
2018-12-22T16:30:36.422Z,101094.05
2018-12-22T16:33:04.792Z,101092.54
2018-12-22T16:35:33.123Z,101089.92
2018-12-22T16:38:01.480Z,101095.27
2018-12-22T16:40:29.866Z,101105.88
2018-12-22T16:42:58.225Z,101106.44
2018-12-22T16:45:27.095Z,101104.88
2018-12-22T16:47:56.453Z,101107.48
2018-12-22T16:50:25.184Z,101108.17
2018-12-22T16:52:53.541Z,101111.37
2018-12-22T16:55:21.952Z,101111.55
2018-12-22T16:58:07.488Z,101115.66
2018-12-22T17:03:38.562Z,101124.42
2018-12-22T17:06:09.187Z,101132.94
2018-12-22T17:08:37.575Z,101137.17
2018-12-22T17:11:06.199Z,101139.22
2018-12-22T17:13:34.550Z,101138.45
2018-12-22T17:16:03.131Z,101143.91
2018-12-22T17:18:31.785Z,101147.88
2018-12-22T17:21:07.081Z,101147.38
2018-12-22T17:23:47.096Z,101155.66
2018-12-22T17:26:15.471Z,101153.75
2018-12-22T17:28:43.848Z,101156.00
2018-12-22T17:31:12.202Z,101167.34
2018-12-22T17:33:40.531Z,101178.36
2018-12-22T17:36:08.987Z,101181.23
2018-12-22T17:38:38.248Z,101177.95
2018-12-22T17:41:06.779Z,101187.98
2018-12-22T17:43:36.915Z,101193.84
2018-12-22T17:46:07.527Z,101201.78
2018-12-22T17:48:35.863Z,101204.80
2018-12-22T17:51:04.389Z,101198.30
2018-12-22T17:53:33.366Z,101202.72
2018-12-22T17:56:01.675Z,101203.42
2018-12-22T17:58:30.274Z,101215.69
2018-12-22T18:00:58.643Z,101215.46
2018-12-22T18:03:27.625Z,101217.21
2018-12-22T18:05:56.184Z,101225.88
2018-12-22T18:08:24.581Z,101228.41
2018-12-22T18:10:53.410Z,101236.14
2018-12-22T18:13:21.834Z,101239.44
2018-12-22T18:15:50.948Z,101245.38
2018-12-22T18:18:19.907Z,101247.81
2018-12-22T18:20:48.298Z,101244.45
2018-12-22T18:23:16.767Z,101248.40
2018-12-22T18:25:45.135Z,101258.13
2018-12-22T18:28:13.508Z,101252.06
2018-12-22T18:30:42.206Z,101254.63
2018-12-22T18:33:12.018Z,101261.71
2018-12-22T18:35:40.685Z,101269.35
2018-12-22T18:38:09.402Z,101267.52
2018-12-22T18:40:37.838Z,101278.81
2018-12-22T18:43:07.110Z,101281.80
2018-12-22T18:45:36.010Z,101277.89
2018-12-22T18:48:04.725Z,101280.28
2018-12-22T18:50:33.233Z,101272.86
2018-12-22T18:53:01.593Z,101279.11
2018-12-22T18:55:32.603Z,101270.63
2018-12-22T18:58:00.959Z,101268.40
2018-12-22T19:00:29.451Z,101264.39
2018-12-22T19:02:57.907Z,101277.33
2018-12-22T19:05:26.370Z,101279.55
2018-12-22T19:07:56.250Z,101281.52
2018-12-22T19:10:31.274Z,101282.52
2018-12-22T19:13:00.670Z,101285.56
2018-12-22T19:15:29.274Z,101290.30
2018-12-22T19:17:57.684Z,101295.38
2018-12-22T19:20:32.720Z,101298.55
2018-12-22T19:23:01.064Z,101298.34
2018-12-22T19:25:29.407Z,101303.33
2018-12-22T19:27:57.751Z,101305.23
2018-12-22T19:30:26.106Z,101307.97
2018-12-22T19:32:54.502Z,101302.93
2018-12-22T19:35:22.925Z,101299.91
2018-12-22T19:37:51.301Z,101306.53
2018-12-22T19:40:19.743Z,101314.09
2018-12-22T19:42:48.144Z,101308.25
2018-12-22T19:45:16.523Z,101311.19
2018-12-22T19:47:44.871Z,101313.77
2018-12-22T19:50:13.495Z,101318.55
2018-12-22T19:52:41.895Z,101311.34
2018-12-22T19:55:10.256Z,101308.70
2018-12-22T19:57:41.922Z,101302.29
2018-12-22T20:00:10.459Z,101308.17
2018-12-22T20:02:38.919Z,101305.47
2018-12-22T20:05:07.525Z,101308.03
2018-12-22T20:07:36.272Z,101312.77
2018-12-22T20:10:05.009Z,101326.09
2018-12-22T20:12:33.341Z,101318.85
2018-12-22T20:15:01.721Z,101329.98
2018-12-22T20:17:30.163Z,101336.31
2018-12-22T20:19:58.575Z,101339.28
2018-12-22T20:22:26.943Z,101340.37
2018-12-22T20:24:55.509Z,101340.16
2018-12-22T20:27:23.887Z,101341.76
2018-12-22T20:29:52.783Z,101337.31
2018-12-22T20:32:21.391Z,101339.18
2018-12-22T20:34:49.899Z,101342.69
2018-12-22T20:37:18.443Z,101343.08
2018-12-22T20:39:46.963Z,101341.30
2018-12-22T20:42:15.363Z,101344.84
2018-12-22T20:44:43.784Z,101340.69
2018-12-22T20:47:12.548Z,101339.72
2018-12-22T20:49:41.018Z,101340.42
2018-12-22T20:52:09.604Z,101340.73
2018-12-22T20:54:38.141Z,101344.81
2018-12-22T20:57:07.201Z,101346.92
2018-12-22T20:59:35.617Z,101350.01
2018-12-22T21:02:04.160Z,101352.05
2018-12-22T21:04:32.732Z,101354.21
2018-12-22T21:07:01.463Z,101360.10
2018-12-22T21:09:29.826Z,101364.38
2018-12-22T21:11:58.349Z,101375.06
2018-12-22T21:14:26.927Z,101378.38
2018-12-22T21:16:55.326Z,101371.98
2018-12-22T21:19:28.684Z,101375.83
2018-12-22T21:21:58.400Z,101370.41
2018-12-22T21:24:28.300Z,101364.47
2018-12-22T21:26:58.070Z,101368.23
2018-12-22T21:29:27.085Z,101369.20
2018-12-22T21:31:55.705Z,101377.36
2018-12-22T21:34:28.267Z,101379.08
2018-12-22T21:36:54.646Z,101379.53
2018-12-22T21:39:23.737Z,101380.94
2018-12-22T21:41:52.794Z,101383.08
2018-12-22T21:44:22.191Z,101386.72
2018-12-22T21:46:52.189Z,101389.09
2018-12-22T21:49:21.303Z,101396.91
2018-12-22T21:51:49.776Z,101399.95
2018-12-22T21:54:18.996Z,101405.64
2018-12-22T21:56:47.350Z,101408.59
2018-12-22T21:59:17.081Z,101410.21
2018-12-22T22:01:46.676Z,101407.94
2018-12-22T22:04:16.431Z,101409.86
2018-12-22T22:06:48.375Z,101413.58
2018-12-22T22:09:19.362Z,101416.69
2018-12-22T22:11:47.824Z,101415.59
2018-12-22T22:14:16.194Z,101422.29
2018-12-22T22:16:44.697Z,101420.95
2018-12-22T22:19:14.566Z,101419.95
2018-12-22T22:21:42.968Z,101427.72
2018-12-22T22:24:11.326Z,101433.11
2018-12-22T22:26:39.683Z,101435.83
2018-12-22T22:29:08.113Z,101439.72
2018-12-22T22:31:36.466Z,101448.12
2018-12-22T22:34:04.912Z,101442.97
2018-12-22T22:36:33.355Z,101457.91
2018-12-22T22:39:01.710Z,101465.43
2018-12-22T22:41:33.830Z,101465.30
2018-12-22T22:44:02.281Z,101474.57
2018-12-22T22:46:30.824Z,101480.03
2018-12-22T22:48:59.179Z,101480.48
2018-12-22T22:51:27.511Z,101482.34
2018-12-22T22:53:55.951Z,101483.92
2018-12-22T22:56:24.448Z,101484.13
2018-12-22T22:58:52.849Z,101480.45
2018-12-22T23:01:21.249Z,101474.66
2018-12-22T23:03:49.607Z,101479.37
2018-12-22T23:06:18.111Z,101465.64
2018-12-22T23:08:46.547Z,101452.69
2018-12-22T23:11:14.946Z,101457.77
2018-12-22T23:13:43.319Z,101463.73
2018-12-22T23:16:11.689Z,101460.64
2018-12-22T23:18:40.052Z,101466.53
2018-12-22T23:21:08.440Z,101464.47
2018-12-22T23:23:36.848Z,101464.14
2018-12-22T23:26:05.219Z,101464.52
2018-12-22T23:28:33.683Z,101467.96
2018-12-22T23:31:02.055Z,101464.56
2018-12-22T23:33:30.456Z,101463.79
2018-12-22T23:35:58.822Z,101469.36
2018-12-22T23:38:27.132Z,101469.53
2018-12-22T23:40:55.482Z,101465.64
2018-12-22T23:43:23.846Z,101464.34
2018-12-22T23:45:52.185Z,101466.28
2018-12-22T23:48:20.732Z,101470.97
2018-12-22T23:50:49.063Z,101473.22
2018-12-22T23:53:17.465Z,101472.65
2018-12-22T23:55:45.878Z,101479.73
2018-12-22T23:58:14.245Z,101481.05
